Δεν απαιτείται κάποια ιδιαίτερη επαγρύπνηση.    Δεν υπάρχει έκτακτο δελτίο καιρού

Οι άλλοι ιστότοποί μου:

PWS_Dashboardsykiaweather.alinos.eu/pwsWD/

SYKIA METEOTEMPLATEsykiameteo.alinos.eu

alinos.eualinos.eu



Αναφορές γειτονικών METAR

   
LGEL - Elefsis (hel-Afb, Greece
Απόσταση από τον σταθμό: Α 77 km
Ενημερώθηκε: 18-10-2021 09:20
Διάσπαρτα νέφη  
Διάσπαρτα νέφη  
   Ανεμος: ΒΒΔ 13 km/h
Ανεμος: ΒΒΔ 13 km/h
Θερμοκρασία: 17°C
Σημείο Δρόσου: 13°C
Υγρασία: 77%
Βαρόμετρο: 1019 hPa
Νεφώσεις: Διάσπαρτα νέφη
Ορατότητα: More than 10 km
Στοιχεία νεφών: Διάσπαρτα νέφη 2500 ft
LGEL 180620Z 33007KT 9999 FEW025 17/13 Q1019
LGRX - Araxos (civ/Afb), Greece
Απόσταση από τον σταθμό: Δ 110 km
Ενημερώθηκε: 18-10-2021 09:20
Μερικώς νεφελώδης  
Μερικώς νεφελώδης  
   Ανεμος: Απνοια
Ανεμος: Απνοια
Θερμοκρασία: 16°C
Σημείο Δρόσου: 13°C
Υγρασία: 83%
Βαρόμετρο: 1020 hPa
Νεφώσεις: Μερικώς νεφελώδης
Ορατότητα: More than 10 km
Στοιχεία νεφών: Διάσπαρτα νέφη 3000 ft,
Μερικώς νεφελώδης 7000 ft
LGRX 180620Z 00000KT 9999 FEW030 SCT070 16/13 Q1020
LGAV - Athens/Elef-Ven, Greece
Απόσταση από τον σταθμό: Α 113 km
Ενημερώθηκε: 18-10-2021 09:20
Διάσπαρτα νέφη  
Διάσπαρτα νέφη  
   Ανεμος: Βόρια 14.8 km/h
Ανεμος: Βόρια 14.8 km/h
Θερμοκρασία: 17°C
Σημείο Δρόσου: 12°C
Υγρασία: 73%
Βαρόμετρο: 1021 hPa
Νεφώσεις: Διάσπαρτα νέφη
Ορατότητα: More than 10 km
Στοιχεία νεφών: Διάσπαρτα νέφη 3000 ft
LGAV 180620Z 01008KT 9999 FEW030 17/12 Q1021 NOSIG
LGAD - Andravida (civ/A, Greece
Απόσταση από τον σταθμό: Δ 124 km
Ενημερώθηκε: 18-10-2021 09:20
Διάσπαρτα νέφη  
Διάσπαρτα νέφη  
   Ανεμος: Απνοια
Ανεμος: Απνοια
Θερμοκρασία: 16°C
Σημείο Δρόσου: 13°C
Υγρασία: 83%
Βαρόμετρο: 1020 hPa
Νεφώσεις: Διάσπαρτα νέφη
Ορατότητα: More than 10 km
Στοιχεία νεφών: Διάσπαρτα νέφη 2000 ft
LGAD 180620Z 00000KT 9999 FEW020 16/13 Q1020
LGKL - Kalamata (hel-Af, Greece
Απόσταση από τον σταθμό: ΝΝΔ 124 km
Ενημερώθηκε: 18-10-2021 09:20
Διάσπαρτα νέφη  
Διάσπαρτα νέφη  
   Ανεμος: ΔΒΔ 7.4 km/h
Ανεμος: ΔΒΔ 7.4 km/h
Θερμοκρασία: 15°C
Σημείο Δρόσου: 13°C
Υγρασία: 88%
Βαρόμετρο: 1020 hPa
Νεφώσεις: Διάσπαρτα νέφη
Ορατότητα: More than 10 km
Στοιχεία νεφών: Διάσπαρτα νέφη 8000 ft
LGKL 180620Z 30004KT 9999 FEW080 15/13 Q1020
LGBL - Nea Anchialos, Greece
Απόσταση από τον σταθμό: Β 129 km
Ενημερώθηκε: 18-10-2021 09:20
Κατά το πλείστον νεφελώδης  
Κατά το πλείστον νεφελώδης  
   Ανεμος: Απνοια
Ανεμος: Απνοια
Θερμοκρασία: 15°C
Σημείο Δρόσου: 14°C
Υγρασία: 94%
Βαρόμετρο: 1022 hPa
Νεφώσεις: Κατά το πλείστον νεφελώδης
Ορατότητα: More than 10 km
Στοιχεία νεφών: Διάσπαρτα νέφη 2500 ft,
Μερικώς νεφελώδης 3000 ft,
Κατά το πλείστον νεφελώδης 8000 ft
LGBL 180620Z 00000KT 9999 FEW025TCU SCT030 BKN080 15/14 Q1022

Αρχική γραφή από  Saratoga-weather.org Προσαρμογή στον ιστότοπο από  Weerstation Leuven

Βλέπε επίσης τις ενημερώσεις τού σταθμού μας στα παρακάτω δίκτυα:

European Weather Network

Weather Underground

AWEKAS

Citizen Weather Observer Program (CWOP)

UK Metoffice

Equipment we use:

Μετεωρολογικός σταθμός
Davis Wireless Vantage Pro2

Davis Wireless Vantage Pro2